Terminal Aerodrome Forecast
Issued by NWS Twin Cities, MN

Home | Current Version | Previous Version | Graphics & Text | Print | Product List | Glossary On
Versions: 1 2 3 4 5 6 7 8 9 10 11 12 13 14 15 16 17 18
000
FTUS43 KMPX 211139
TAFEAU
TAF
KEAU 211139Z 2112/2212 28006KT P6SM OVC009
      TEMPO 2112/2114 4SM BR OVC005
     FM211400 24005KT 4SM BR BKN007
     FM211600 20008KT P6SM SCT010
     FM211800 20011KT P6SM SCT250
     FM220000 19005KT P6SM SCT250=

USA.gov is the U.S. government's official web portal to all federal, state and local government web resources and services.